Airfield :
LOGIN :

Register | Disclaimer

   EN    FR    IT 

 










Legend :    VFR   Marginal VFR   IFR   Intensive IFR   Very Intensive IFR
Visi :
Ceiling :
>= 8 km
>= 3000ft
5 to 8 km
1000 to 3000 ft
1500m to 5 km
500 to 1000 ft
800 to 1500m
200 to 500 ft
< 800m
< 200 ft
Symbols :   Thunderstorms  Fog  Heavy snow  Heavy precipitations  Wind > 20 kt
SIGMETs :     Misc.  Thunderstorms  Icing  Turbulence  Mountain Waves  Volcanic Ashes






- Airport Elevation : 20 ft


EBFN - Koksijde

CURRENT METAR :
  • 270525Z 02004KT 9999 FEW240 14/10 Q1035 BLU BLU

EXPIRED METARs :
  • 270455Z 01004KT 9999 FEW240 13/10 Q1035 BLU BLU
  • 270448Z 36004KT 9999 FEW240 12/10 Q1035 BLU BLU
  • 270425Z AUTO 36003KT 9999 NCD 12/09 Q1035 BLU
  • 270355Z AUTO 01003KT 9999 NCD 11/09 Q1035 BLU

TAF TAF EBFN
Valid from the 27 at 07:00 until the 27 at 16:00 UTC


270541Z 2707/2716 02008KT 9999 SKC BY EBWM



MET'MAP, your aeronautical weather chart ! - Copyright ORBIFLY December 2007 - Disclaimer

ORBIFLY MET'MAP TEAM :

Programming & Development : Alexandra Zaïnal
Concept & original design : Baudouin d'Aumeries
Assistance for programming : Marc-Olivier Méhu
Technical & hardware support : Manuel Goepfert

Contact : metmap@orbifly.com




SOURCES & CREDITS :

   NOAA